Latest Weather Observations for Ngayawili (Elcho Island)

IDD60801

Issued at 9:31 am CST Tuesday 27 September 2016 (issued every 30 minutes, with the page automatically refreshed every 10 minutes)

About weather observations | Map of weather stations | Latest weather observations for NT | Other Formats
Station Details ID: 014517 Name: NGAYAWILI Lat: -12.00 Lon: 135.57 Height: 8.1 m
Data from the previous 72 hours. | See also: Recent months at Ngayawili (Elcho Island)
Date/Time
CST
Temp
°C
App
Temp
°C
Dew
Point
°C
Rel
Hum
%
Delta-T
°C
Wind Press
QNH
hPa
Press
MSL
hPa
Rain since
9am
mm
Dir  Spd
km/h
Gust
km/h
Spd
kts
Gust
kts
27/09:30am 31.2 33.8 21.9 57 6.3 E 11 19 6 10 1011.6 1011.5 0.0
27/09:00am 29.9 33.1 23.1 67 4.7 E 11 17 6 9 1011.4 1011.3 0.0
27/08:30am 28.4 31.5 23.5 75 3.4 SE 13 17 7 9 1011.5 1011.4 0.0
27/08:00am 27.0 31.7 25.0 89 1.4 ESE 9 13 5 7 1011.7 1011.6 0.0
27/07:30am 25.9 31.5 25.4 97 0.4 SE 6 7 3 4 1011.7 1011.6 0.0
27/07:00am 24.7 29.1 24.4 98 0.2 SSE 9 11 5 6 1011.5 1011.4 0.0
27/06:30am 23.6 27.3 23.3 98 0.2 SE 9 9 5 5 1011.0 1010.9 0.0
27/06:00am 24.2 28.7 23.9 98 0.2 ESE 7 9 4 5 1010.8 1010.7 0.0
27/05:30am 24.1 28.0 23.6 97 0.3 SSE 9 11 5 6 1010.4 1010.3 0.0
27/05:00am 23.8 27.5 23.3 97 0.3 SSE 9 9 5 5 1010.0 1009.9 0.0
27/04:30am 23.4 27.3 22.9 97 0.3 SSE 7 9 4 5 1009.4 1009.3 0.0
27/04:00am 23.4 27.4 22.7 96 0.5 SSE 6 7 3 4 1009.1 1009.0 0.0
27/03:30am 24.2 29.8 23.5 96 0.5 CALM 0 2 0 1 1009.0 1008.9 0.0
27/03:00am 24.6 29.3 23.9 96 0.5 S 6 6 3 3 1009.0 1008.9 0.0
27/02:30am 24.0 28.0 23.1 95 0.6 S 7 9 4 5 1009.3 1009.2 0.0
27/02:00am 23.7 27.7 22.7 94 0.7 E 6 7 3 4 1009.4 1009.3 0.0
27/01:30am 25.3 30.2 24.4 95 0.6 ESE 6 6 3 3 1009.7 1009.6 0.0
27/01:00am 25.0 29.7 24.0 94 0.7 ESE 6 7 3 4 1010.0 1009.9 0.0
27/12:30am 25.6 30.5 24.6 94 0.7 E 7 9 4 5 1010.4 1010.3 0.0
27/12:00am 24.9 29.7 23.5 92 1.0 E 4 6 2 3 1010.7 1010.6 0.0
 
Date/Time
CST
Temp
°C
App
Temp
°C
Dew
Point
°C
Rel
Hum
%
Delta-T
°C
Wind Press
QNH
hPa
Press
MSL
hPa
Rain since
9am
mm
Dir  Spd
km/h
Gust
km/h
Spd
kts
Gust
kts
26/11:30pm 25.8 30.6 24.4 92 1.0 ENE 7 9 4 5 1010.7 1010.6 0.0
26/11:00pm 25.7 30.3 24.1 91 1.1 ENE 7 9 4 5 1010.8 1010.7 0.0
26/10:30pm 25.3 29.7 23.4 89 1.3 ENE 6 7 3 4 1011.0 1010.9 0.0
26/10:00pm 25.6 29.8 23.5 88 1.4 ENE 7 9 4 5 1010.9 1010.8 0.0
26/09:30pm 26.0 30.5 23.7 87 1.6 E 6 6 3 3 1010.9 1010.8 0.0
26/09:00pm 26.3 30.7 23.4 84 2.0 E 6 7 3 4 1010.6 1010.5 0.0
26/08:30pm 26.7 30.9 23.2 81 2.4 ENE 6 7 3 4 1010.3 1010.2 0.0
26/08:00pm 27.5 31.6 23.3 78 2.9 ENE 7 9 4 5 1010.0 1009.9 0.0
26/07:30pm 27.9 31.5 23.1 75 3.3 ENE 9 13 5 7 1009.8 1009.7 0.0
26/07:00pm 28.1 32.2 23.0 74 3.5 E 6 7 3 4 1009.6 1009.5 0.0
26/06:30pm 28.8 32.5 23.2 71 3.8 NE 9 13 5 7 1009.2 1009.1 0.0
26/06:00pm 29.0 32.3 23.2 71 4.0 NE 11 17 6 9 1008.8 1008.7 0.0
26/05:30pm 29.6 31.0 23.5 69 4.2 NNE 22 28 12 15 1008.3 1008.2 0.0
26/05:00pm 30.0 31.6 23.9 70 4.2 N 22 28 12 15 1008.1 1008.0 0.0
26/04:30pm 30.2 31.8 23.9 69 4.4 N 22 28 12 15 1008.2 1008.1 0.0
26/04:00pm 30.5 32.3 24.2 69 4.4 N 22 26 12 14 1008.3 1008.2 0.0
26/03:30pm 30.7 32.8 24.1 68 4.6 N 20 24 11 13 1008.3 1008.2 0.0
26/03:00pm 31.5 33.2 24.1 65 5.2 N 22 24 12 13 1008.4 1008.3 0.0
26/02:30pm 31.6 33.6 24.0 64 5.3 N 20 24 11 13 1008.6 1008.5 0.0
26/02:00pm 31.6 32.5 23.4 61 5.7 N 24 26 13 14 1008.9 1008.8 0.0
26/01:30pm 31.2 31.9 23.0 61 5.6 N 24 28 13 15 1009.2 1009.1 0.0
26/01:00pm 31.5 33.1 23.9 64 5.3 N 22 28 12 15 1009.5 1009.4 0.0
26/12:30pm 31.9 32.5 23.4 60 5.9 N 26 32 14 17 1010.0 1009.9 0.0
26/12:00pm 32.1 33.5 24.2 63 5.5 N 24 28 13 15 1010.4 1010.3 0.0
26/11:30am 31.6 33.2 22.9 60 6.0 NNE 19 26 10 14 1010.7 1010.6 0.0
26/11:00am 31.6 33.2 21.5 55 6.8 E 15 22 8 12 1011.1 1011.0 0.0
26/10:30am 31.4 33.7 22.1 57 6.3 ENE 13 26 7 14 1011.5 1011.4 0.0
26/10:00am 30.2 33.2 22.6 63 5.2 ESE 11 20 6 11 1011.9 1011.8 0.0
26/09:30am 28.9 31.9 22.6 69 4.3 E 11 17 6 9 1011.9 1011.8 0.0
26/09:00am 28.4 31.4 23.3 74 3.5 ESE 13 20 7 11 1011.9 1011.8 0.0
26/08:30am 27.6 31.6 23.8 80 2.6 ESE 9 13 5 7 1012.0 1011.9 0.0
26/08:00am 26.2 31.1 25.2 94 0.7 SE 9 11 5 6 1011.8 1011.7 0.0
26/07:30am 25.2 30.3 24.9 98 0.2 ESE 7 9 4 5 1011.2 1011.1 0.0
26/07:00am 24.4 28.6 24.1 98 0.2 SE 9 11 5 6 1010.7 1010.6 0.0
26/06:30am 24.1 27.7 23.8 98 0.2 SE 11 11 6 6 1010.3 1010.2 0.0
26/06:00am 23.5 27.1 23.0 97 0.3 SE 9 11 5 6 1009.7 1009.6 0.0
26/05:30am 23.8 27.2 23.3 97 0.3 SE 11 11 6 6 1009.3 1009.2 0.0
26/05:00am 23.4 26.9 22.9 97 0.3 SSE 9 11 5 6 1009.1 1009.0 0.0
26/04:30am 23.6 27.1 22.9 96 0.5 SSE 9 11 5 6 1008.8 1008.7 0.0
26/04:00am 23.0 26.7 22.2 95 0.5 ESE 6 7 3 4 1008.8 1008.7 0.0
26/03:30am 23.4 27.3 22.6 95 0.5 SE 6 7 3 4 1008.8 1008.7 0.0
26/03:00am 23.8 27.7 22.6 93 0.8 SE 6 6 3 3 1008.8 1008.7 0.0
26/02:30am 23.9 27.8 22.5 92 0.9 SE 6 7 3 4 1008.7 1008.6 0.0
26/02:00am 24.8 28.6 23.4 92 1.0 ENE 9 13 5 7 1008.5 1008.4 0.0
26/01:30am 24.9 29.0 23.3 91 1.1 ENE 7 11 4 6 1009.0 1008.9 0.0
26/01:00am 24.9 29.0 23.3 91 1.1 ENE 7 11 4 6 1009.6 1009.5 0.0
26/12:30am 25.0 29.2 23.4 91 1.1 ENE 7 9 4 5 1010.0 1009.9 0.0
26/12:00am 25.2 29.3 23.3 89 1.3 ENE 7 9 4 5 1010.4 1010.3 0.0
 
Date/Time
CST
Temp
°C
App
Temp
°C
Dew
Point
°C
Rel
Hum
%
Delta-T
°C
Wind Press
QNH
hPa
Press
MSL
hPa
Rain since
9am
mm
Dir  Spd
km/h
Gust
km/h
Spd
kts
Gust
kts
25/11:30pm 25.7 30.0 23.7 89 1.4 E 7 9 4 5 1010.5 1010.4 0.0
25/11:00pm 25.9 30.4 23.9 89 1.4 ENE 7 9 4 5 1010.8 1010.7 0.0
25/10:30pm 25.6 29.8 23.5 88 1.4 E 7 9 4 5 1011.3 1011.2 0.0
25/10:00pm 25.9 30.4 23.6 87 1.6 ENE 6 9 3 5 1011.0 1010.9 0.0
25/09:30pm 25.8 30.9 22.7 83 2.1 CALM 0 7 0 4 1010.7 1010.6 0.0
25/09:00pm 26.7 31.8 23.4 82 2.3 ENE 2 7 1 4 1010.4 1010.3 0.0
25/08:30pm 27.0 30.8 23.5 81 2.4 ESE 9 13 5 7 1010.5 1010.4 0.0
25/08:00pm 27.1 30.7 23.1 79 2.7 NE 9 15 5 8 1009.4 1009.3 0.0
25/07:30pm 27.5 30.5 23.3 78 2.9 NE 13 17 7 9 1008.9 1008.8 0.0
25/07:00pm 27.8 30.1 23.4 77 3.0 NNE 17 20 9 11 1008.3 1008.2 0.0
25/06:30pm 27.8 30.0 23.2 76 3.1 NNE 17 22 9 12 1008.0 1007.9 0.0
25/06:00pm 28.4 30.5 23.8 76 3.2 N 19 22 10 12 1007.8 1007.7 0.0
25/05:30pm 28.9 30.9 23.6 73 3.7 N 19 22 10 12 1007.8 1007.7 0.0
25/05:00pm 29.2 30.9 23.4 71 4.0 N 20 22 11 12 1007.6 1007.5 0.0
25/04:30pm 29.4 30.7 22.6 67 4.6 N 20 24 11 13 1007.3 1007.2 0.0
25/04:00pm 29.7 31.3 23.2 68 4.5 N 20 24 11 13 1007.4 1007.3 0.0
25/03:30pm 29.8 31.7 22.8 66 4.8 N 17 20 9 11 1007.3 1007.2 0.0
25/03:00pm 29.8 31.4 22.8 66 4.8 N 19 24 10 13 1007.5 1007.4 0.0
25/02:30pm 30.5 32.5 22.9 64 5.2 NNW 17 20 9 11 1007.8 1007.7 0.0
25/02:00pm 30.3 32.6 22.7 64 5.2 NNW 15 19 8 10 1007.8 1007.7 0.0
25/01:30pm 30.1 32.1 22.3 63 5.3 NW 15 19 8 10 1008.0 1007.9 0.0
25/01:00pm 30.7 33.5 23.6 66 4.9 NW 15 19 8 10 1008.2 1008.1 0.0
25/12:30pm 29.8 31.7 22.8 66 4.8 NW 17 19 9 10 1008.8 1008.7 0.0
25/12:00pm 30.2 32.2 22.9 65 5.0 NNW 17 20 9 11 1009.4 1009.3 0.0
25/11:30am 29.8 31.5 23.0 67 4.7 N 19 20 10 11 1009.9 1009.8 0.0
25/11:00am 29.9 32.4 23.1 67 4.7 N 15 19 8 10 1010.4 1010.3 0.0
25/10:30am 29.6 32.2 23.3 69 4.3 N 15 19 8 10 1010.5 1010.4 0.0
25/10:00am 29.4 32.2 23.6 71 4.0 N 15 17 8 9 1010.4 1010.3 0.0
25/09:30am 28.5 31.0 22.5 70 4.1 N 13 15 7 8 1010.5 1010.4 0.0
25/09:00am 28.2 31.2 22.7 72 3.7 N 11 15 6 8 1010.4 1010.3 0.0
25/08:30am 26.8 30.5 22.6 78 2.8 N 7 11 4 6 1010.4 1010.3 0.0
25/08:00am 26.7 31.1 23.8 84 2.0 NNE 7 11 4 6 1010.1 1010.0 0.0
25/07:30am 25.0 30.0 24.5 97 0.3 ESE 6 7 3 4 1010.0 1009.9 0.0
25/07:00am 23.7 27.4 23.2 97 0.3 SE 9 9 5 5 1009.7 1009.6 0.0
25/06:30am 22.6 26.1 22.1 97 0.3 ESE 7 9 4 5 1009.1 1009.0 0.0
25/06:00am 22.1 25.3 21.6 97 0.3 E 7 9 4 5 1008.6 1008.5 0.0
25/05:30am 23.3 26.8 22.8 97 0.3 E 9 11 5 6 1008.3 1008.2 0.0
25/05:00am 22.3 25.5 21.6 96 0.5 E 7 9 4 5 1008.0 1007.9 0.0
25/04:30am 23.2 27.0 22.7 97 0.3 E 7 9 4 5 1007.9 1007.8 0.0
25/04:00am 22.8 26.3 22.1 96 0.5 E 7 9 4 5 1007.8 1007.7 0.0
25/03:30am 23.5 27.3 22.8 96 0.5 E 7 9 4 5 1007.6 1007.5 0.0
25/03:00am 23.5 27.3 22.7 95 0.5 E 7 7 4 4 1007.6 1007.5 0.0
25/02:30am 24.1 28.3 23.2 95 0.6 ENE 6 7 3 4 1007.7 1007.6 0.0
25/02:00am 24.5 28.8 23.6 95 0.6 ENE 7 9 4 5 1008.0 1007.9 0.0
25/01:30am 24.6 28.9 23.7 95 0.6 E 7 9 4 5 1008.2 1008.1 0.0
25/01:00am 24.5 29.2 23.3 93 0.8 ESE 4 7 2 4 1008.6 1008.5 0.0
25/12:30am 25.0 29.5 23.6 92 1.0 ENE 6 7 3 4 1008.8 1008.7 0.0
25/12:00am 25.4 29.9 24.0 92 1.0 ENE 7 9 4 5 1008.8 1008.7 0.0
 
Date/Time
CST
Temp
°C
App
Temp
°C
Dew
Point
°C
Rel
Hum
%
Delta-T
°C
Wind Press
QNH
hPa
Press
MSL
hPa
Rain since
9am
mm
Dir  Spd
km/h
Gust
km/h
Spd
kts
Gust
kts
24/11:30pm 25.8 30.3 24.0 90 1.2 E 7 9 4 5 1009.3 1009.2 0.0
24/11:00pm 26.2 30.6 24.4 90 1.2 ENE 9 15 5 8 1009.5 1009.4 0.0
24/10:30pm 25.9 30.1 24.1 90 1.2 ENE 9 11 5 6 1009.6 1009.5 0.0
24/10:00pm 26.0 30.8 24.4 91 1.1 ENE 7 11 4 6 1009.6 1009.5 0.0
24/09:30pm 25.8 30.4 24.2 91 1.1 E 7 9 4 5 1009.5 1009.4 0.0
24/09:00pm 26.1 30.3 24.1 89 1.4 NE 9 11 5 6 1009.2 1009.1 0.0
24/08:30pm 26.1 30.6 24.0 88 1.4 ENE 7 7 4 4 1009.0 1008.9 0.0
24/08:00pm 26.7 31.0 24.2 86 1.7 NE 9 9 5 5 1008.6 1008.5 0.0
24/07:30pm 27.1 31.7 24.2 84 2.0 NE 7 11 4 6 1008.3 1008.2 0.0
24/07:00pm 27.8 31.4 24.4 82 2.4 N 13 15 7 8 1007.9 1007.8 0.0
24/06:30pm 28.0 30.9 24.4 81 2.5 N 17 20 9 11 1007.4 1007.3 0.0
24/06:00pm 28.3 31.0 24.1 78 2.9 N 17 20 9 11 1007.1 1007.0 0.0
24/05:30pm 28.9 30.5 23.8 74 3.5 N 22 24 12 13 1006.7 1006.6 0.0
24/05:00pm 29.7 31.4 24.6 74 3.6 N 24 26 13 14 1006.5 1006.4 0.0
24/04:30pm 29.9 31.7 24.8 74 3.6 N 24 28 13 15 1006.3 1006.2 0.0
24/04:00pm 29.9 31.9 24.5 73 3.8 N 22 26 12 14 1006.3 1006.2 0.0
24/03:30pm 30.5 32.5 24.6 70 4.1 N 22 24 12 13 1006.4 1006.3 0.0
24/03:00pm 30.2 31.5 24.6 72 3.9 N 26 28 14 15 1006.7 1006.6 0.0
24/02:30pm 30.5 32.3 24.9 72 3.9 N 24 28 13 15 1007.2 1007.1 0.0
24/02:00pm 30.3 31.8 24.4 70 4.1 N 24 28 13 15 1007.5 1007.4 0.0
24/01:30pm 30.7 32.2 24.4 69 4.4 N 24 28 13 15 1008.0 1007.9 0.0
24/01:00pm 31.0 32.5 24.9 70 4.3 N 26 30 14 16 1008.4 1008.3 0.0
24/12:30pm 30.7 31.6 23.9 67 4.7 N 26 30 14 16 1008.8 1008.7 0.0
24/12:00pm 30.6 31.1 23.3 65 5.0 N 26 30 14 16 1009.4 1009.3 0.0
24/11:30am 30.8 30.7 22.9 62 5.4 N 28 32 15 17 1009.9 1009.8 0.0
24/11:00am 30.4 31.5 23.1 65 5.0 N 22 24 12 13 1010.2 1010.1 0.0
24/10:30am 30.6 31.9 23.3 65 5.0 N 22 28 12 15 1010.7 1010.6 0.0
24/10:00am 30.9 34.0 22.2 59 5.9 N 9 17 5 9 1010.9 1010.8 0.0

Other Formats:

Comma delimited format used in spreadsheet applications
http://www.bom.gov.au/fwo/IDD60801/IDD60801.95146.axf

JavaScript Object Notation format (JSON) in row-major order
http://www.bom.gov.au/fwo/IDD60801/IDD60801.95146.json